ADDS METAR Data INFO
IDs: Format: Raw Decoded Include TAF

Data at: 0147 UTC 26 Feb 2018

KADU 260135Z AUTO 00000KT 10SM CLR M02/M04 A3004 RMK AO2
KADU 260115Z AUTO 00000KT 10SM CLR M02/M04 A3004 RMK AO2
KADU 260055Z AUTO 00000KT 10SM CLR M01/M03 A3003 RMK AO2
KADU 260035Z AUTO 00000KT 10SM CLR M01/M03 A3003 RMK AO2
KADU 260015Z AUTO 00000KT 10SM CLR 01/M03 A3003 RMK AO2
KADU 252355Z AUTO 00000KT 10SM CLR 02/M03 A3002 RMK AO2
KADU 252335Z AUTO 00000KT 10SM CLR 03/M03 A3001 RMK AO2
KADU 252315Z AUTO 00000KT 10SM CLR 03/M03 A3001 RMK AO2
KADU 252255Z AUTO 24003KT 10SM CLR 03/M03 A3002 RMK AO2
KADU 252235Z AUTO 24006KT 10SM CLR 03/M03 A3001 RMK AO2
KADU 252215Z AUTO 24004KT 10SM CLR 03/M03 A3000 RMK AO2
KADU 252155Z AUTO 23009KT 10SM CLR 03/M03 A3001 RMK AO2
KADU 252135Z AUTO 23005KT 10SM CLR 04/M03 A3000 RMK AO2
KADU 252115Z AUTO 22008KT 10SM CLR 03/M03 A2999 RMK AO2
KADU 252055Z AUTO 24009KT 10SM CLR 03/M03 A2999 RMK AO2
KADU 252035Z AUTO 24011G14KT 10SM CLR 03/M03 A2998 RMK AO2
KADU 252015Z AUTO 25009G15KT 10SM CLR 03/M03 A2998 RMK AO2
KADU 251955Z AUTO 23009KT 10SM CLR 03/M03 A2998 RMK AO2
KADU 251935Z AUTO 24011KT 10SM CLR 03/M03 A2997 RMK AO2
KADU 251915Z AUTO 23011KT 10SM CLR 02/M03 A2997 RMK AO2
KADU 251855Z AUTO 24009KT 10SM CLR 02/M03 A2997 RMK AO2
KADU 251835Z AUTO 24011G15KT 10SM CLR 02/M03 A2997 RMK AO2
KADU 251815Z AUTO 25010G14KT 10SM CLR 02/M03 A2997 RMK AO2
KADU 251755Z AUTO 26006KT 10SM CLR 02/M03 A2997 RMK AO2
KADU 251735Z AUTO 25010G15KT 10SM CLR 01/M04 A2996 RMK AO2
KADU 251715Z AUTO 26006KT 10SM CLR 00/M04 A2995 RMK AO2
KADU 251655Z AUTO 26006KT 10SM CLR 00/M04 A2994 RMK AO2
KADU 251635Z AUTO 25007KT 10SM CLR M01/M04 A2993 RMK AO2
KADU 251615Z AUTO 00000KT 10SM CLR M01/M04 A2992 RMK AO2
KADU 251555Z AUTO 27003KT 10SM CLR M01/M04 A2991 RMK AO2
KADU 251535Z AUTO 25011G16KT 10SM CLR M02/M05 A2991 RMK AO2
KADU 251515Z AUTO 25009KT 10SM CLR M03/M06 A2990 RMK AO2
KADU 251455Z AUTO 24011G17KT 10SM CLR M03/M06 A2989 RMK AO2
KADU 251435Z AUTO 23011G16KT 10SM CLR M04/M07 A2989 RMK AO2
KADU 251415Z AUTO 22011G15KT 10SM CLR M04/M07 A2989 RMK AO2
KADU 251355Z AUTO 21006KT 10SM CLR M05/M08 A2989 RMK AO2
KADU 251335Z AUTO 22008KT 10SM CLR M06/M08 A2987 RMK AO2
KADU 251315Z AUTO 22008KT 10SM CLR M06/M08 A2986 RMK AO2
KADU 251255Z AUTO 22008KT 10SM CLR M06/M08 A2986 RMK AO2
KADU 251235Z AUTO 23008KT 10SM CLR M06/M09 A2986 RMK AO2
KADU 251215Z AUTO 23008KT 10SM CLR M06/M09 A2985 RMK AO2
KADU 251155Z AUTO 24006KT 10SM CLR M07/M09 A2984 RMK AO2
KADU 251135Z AUTO 00000KT 10SM CLR M07/M09 A2984 RMK AO2
KADU 251115Z AUTO 25007KT 10SM CLR M06/M09 A2983 RMK AO2
KADU 251055Z AUTO 24007KT 10SM CLR M06/M09 A2983 RMK AO2
KADU 251035Z AUTO 24008KT 10SM CLR M06/M08 A2982 RMK AO2
KADU 251015Z AUTO 25003KT 10SM CLR M06/M09 A2982 RMK AO2
KADU 250955Z AUTO 25007KT 10SM CLR M06/M09 A2981 RMK AO2
KADU 250935Z AUTO 25007KT 10SM CLR M06/M08 A2980 RMK AO2
KADU 250915Z AUTO 26004KT 10SM CLR M06/M08 A2980 RMK AO2
KADU 250855Z AUTO 26006KT 10SM CLR M06/M08 A2980 RMK AO2
KADU 250835Z AUTO 27005KT 10SM CLR M06/M08 A2980 RMK AO2
KADU 250815Z AUTO 00000KT 10SM CLR M06/M08 A2981 RMK AO2
KADU 250755Z AUTO 27007KT 240V300 10SM CLR M06/M08 A2981 RMK AO2
KADU 250735Z AUTO 27007KT 10SM CLR M05/M07 A2979 RMK AO2
KADU 250715Z AUTO 28007KT 10SM CLR M04/M07 A2979 RMK AO2
KADU 250655Z AUTO 27009KT 10SM SCT020 M04/M06 A2979 RMK AO2
KADU 250635Z AUTO 26006KT 10SM OVC020 M03/M05 A2977 RMK AO2
KADU 250615Z AUTO 00000KT 10SM OVC020 M02/M04 A2976 RMK AO2
KADU 250555Z AUTO 26008KT 240V300 10SM OVC020 M02/M04 A2975 RMK AO2
KADU 250535Z AUTO 27005KT 10SM OVC022 M02/M04 A2974 RMK AO2
KADU 250515Z AUTO 27006KT 10SM BKN026 OVC031 M02/M03 A2974 RMK AO2
KADU 250455Z AUTO 26006G14KT 7SM BKN030 M02/M04 A2974 RMK AO2
KADU 250435Z AUTO 24011G15KT 7SM SCT012 OVC030 M02/M04 A2973 RMK AO2
KADU 250415Z AUTO 23009KT 10SM OVC030 M02/M04 A2972 RMK AO2
KADU 250355Z AUTO 00000KT 10SM OVC032 M02/M04 A2972 RMK AO2
KADU 250335Z AUTO 24009KT 10SM SCT028 OVC036 M02/M04 A2971 RMK AO2
KADU 250315Z AUTO 25009G14KT 10SM BKN042 M03/M04 A2970 RMK AO2
KADU 250255Z AUTO 24008KT 10SM BKN042 OVC050 M03/M04 A2970 RMK AO2
KADU 250235Z AUTO 25009KT 10SM SCT035 SCT046 OVC050 M03/M04 A2970 RMK AO2
KADU 250215Z AUTO 25012KT 10SM SCT014 BKN035 OVC065 M03/M04 A2970 RMK AO2
KADU 250155Z AUTO 26010G14KT 10SM BKN012 OVC065 M03/M04 A2970 RMK AO2
KADU 250135Z AUTO 26007KT 220V290 10SM BKN012 OVC065 M03/M04 A2969 RMK AO2
KADU 250115Z AUTO 26009KT 10SM SCT012 OVC065 M03/M04 A2969 RMK AO2
KADU 250055Z AUTO 25006KT 10SM SCT010 OVC065 M02/M04 A2969 RMK AO2
KADU 250035Z AUTO 00000KT 10SM SCT012 BKN042 OVC065 M02/M04 A2969 RMK AO2
KADU 250015Z AUTO 00000KT 10SM OVC012 M02/M03 A2968 RMK AO2
KADU 242355Z AUTO 25004KT 10SM -SN OVC012 M02/M03 A2967 RMK AO2
KADU 242335Z AUTO 25005KT 7SM -SN OVC012 M01/M03 A2966 RMK AO2
KADU 242315Z AUTO 25004KT 4SM UP BKN012 OVC017 M01/M03 A2966 RMK AO2
KADU 242255Z AUTO 26004KT 3SM UP SCT008 OVC015 M01/M02 A2966 RMK AO2
KADU 242235Z AUTO 00000KT 4SM UP OVC008 M01/M02 A2965 RMK AO2
KADU 242215Z AUTO 00000KT 4SM UP BKN008 BKN012 OVC046 M01/M02 A2966 RMK AO2
KADU 242155Z AUTO 29005KT 3SM UP BKN010 OVC026 M01/M02 A2967 RMK AO2
KADU 242135Z AUTO 00000KT 2 1/2SM UP SCT008 OVC013 M01/M02 A2966 RMK AO2
KADU 242115Z AUTO 00000KT 1 1/2SM UP BKN009 OVC013 M01/M02 A2968 RMK AO2
KADU 242055Z AUTO 00000KT 1 1/4SM UP BKN005 OVC010 M01/M02 A2970 RMK AO2 P0001
KADU 242035Z AUTO 00000KT 1SM UP OVC006 M01/M02 A2970 RMK AO2
KADU 242015Z AUTO 00000KT 1 1/4SM UP OVC006 M01/M02 A2971 RMK AO2
KADU 241955Z AUTO 00000KT 3/4SM UP BKN006 OVC010 M01/M02 A2972 RMK AO2
KADU 241935Z AUTO 00000KT 1SM UP OVC008 M01/M02 A2974 RMK AO2
KADU 241915Z AUTO 00000KT 1 1/2SM UP OVC006 M01/M02 A2976 RMK AO2
KADU 241855Z AUTO 00000KT 1 3/4SM UP OVC006 M01/M02 A2976 RMK AO2
KADU 241835Z AUTO 00000KT 3/4SM UP OVC006 M01/M02 A2978 RMK AO2
KADU 241815Z AUTO 00000KT 1SM UP OVC006 M01/M02 A2981 RMK AO2
KADU 241755Z AUTO 11003KT 1 3/4SM UP OVC006 M01/M02 A2981 RMK AO2
KADU 241735Z AUTO 00000KT 1SM UP OVC006 M01/M03 A2982 RMK AO2
KADU 241715Z AUTO 00000KT 1SM UP OVC006 M01/M03 A2985 RMK AO2
KADU 241655Z AUTO 12005KT 1SM UP OVC006 M02/M03 A2986 RMK AO2 P0002
KADU 241635Z AUTO 12008KT 1SM UP OVC006 M02/M03 A2987 RMK AO2 P0001
KADU 241615Z AUTO 12008KT 3/4SM UP OVC006 M02/M04 A2989 RMK AO2 P0001
KADU 241555Z AUTO 11006KT 1 1/4SM UP OVC008 M03/M04 A2991 RMK AO2
KADU 241535Z AUTO 00000KT 1 1/4SM -SN OVC008 M03/M04 A2992 RMK AO2
KADU 241515Z AUTO 10007KT 2SM UP OVC010 M03/M05 A2993 RMK AO2
KADU 241455Z AUTO 11010KT 2 1/2SM UP OVC012 M03/M05 A2995 RMK AO2
KADU 241435Z AUTO 00000KT 5SM UP SCT012 OVC040 M03/M05 A2997 RMK AO2
KADU 241415Z AUTO 00000KT 7SM UP OVC040 M04/M06 A2998 RMK AO2
KADU 241355Z AUTO 13003G08KT 5SM UP OVC044 M04/M06 A2999 RMK AO2